Aurelia, North Dakota
Current Conditions -  °F | °C
As of 10:55 AM on Friday 24 Oct 2014 (Local Time) from K08D Reporting Station
Few Clouds Few Clouds  
Wind Chill: 55°   Ceiling: Unl
Heat Index: 55°   Visibility: 10mi
Dew Point: 36°   Wind: 21mph
Humidity: 47%   Direction: 280°W
Pressure: 29.87"   Gusts: 29mph
Location:  48.4598°N, 101.907°W
Report Text: K08D 241555Z AUTO 28018G25KT 10SM FEW120 13/02 A2987 RMK AO2
Loading
Personal Weather Stations






























Interactive Weather Map
Tropical Storm Tracking
New forecast layout! Learn more

10-Day Weather Forecast

Advertisements
Track Severe Weather on mobile